Quick Links (Output Below):   Max & Min Temps   /   Climate Reports   /   Zone Forecasts
River Forecasts   /   Forestry Forecasts   /   Aviation Forecasts   /   Radars   /   Features

Terminal Aerodrome Forecast (Harrison)

Pick a Site:
Arkadelphia | El Dorado | Fayetteville | Fort Smith | Harrison | Highfill | Hot Springs | Jonesboro
Little Rock | Monticello | Mountain Home | Pine Bluff | Texarkana
 Forecast 

KHRO 301132Z 3012/3112 15003KT P6SM VCSH SCT080 OVC120
     FM301800 24007KT P6SM VCSH OVC050
      TEMPO 3020/3024 6SM -SHRA BR OVC040
     FM310000 23003KT 5SM -SHRA BR OVC035
      TEMPO 3108/3112 2SM SHRA BR OVC025=


 Latest METARs (Observations) 
How to Decode METARs
13Z KHRO 301253Z AUTO 00000KT 10SM BKN065 BKN090 OVC110 19/18 A3011
         RMK AO2 RAB06E24 SLP186 P0000 T01940178
         
12Z KHRO 301153Z AUTO 16003KT 10SM SCT070 BKN095 OVC120 19/18 A3011
         RMK AO2 SLP182 T01890178 10194 20178 53005
         
11Z KHRO 301053Z AUTO 14005KT 10SM SCT070 BKN120 18/18 A3010 RMK AO2
         SLP180 T01830178
         
10Z KHRO 300953Z AUTO 00000KT 10SM SCT080 OVC110 19/17 A3009 RMK AO2
         SLP177 T01890172
         
09Z KHRO 300853Z AUTO 00000KT 10SM BKN080 18/17 A3009 RMK AO2 SLP176
         T01830167 58005
         
08Z KHRO 300753Z AUTO 00000KT 10SM BKN075 BKN090 18/17 A3010 RMK AO2
         SLP178 T01830172
         
07Z KHRO 300653Z AUTO 24003KT 10SM CLR 18/17 A3011 RMK AO2 SLP182
         T01780167
         
06Z KHRO 300553Z AUTO 00000KT 10SM CLR 18/17 A3011 RMK AO2 SLP182
         T01830167 10256 20178 402830139 58001
         
05Z KHRO 300453Z AUTO 23003KT 10SM CLR 19/16 A3012 RMK AO2 SLP185
         T01940161
         
04Z KHRO 300353Z AUTO 00000KT 10SM CLR 20/16 A3012 RMK AO2 SLP186
         T02000161
         
***** Today's Observations (Above) *****


Back to Main Page
http://www.srh.noaa.gov/lzk/qfcst.php

USA.gov is the U.S. government's official web portal to all federal, state and local government web resources and services.